Nearby METAR Reports

 

KGRB - Ashwaubenon, Wisconsin, USA
Distance from station: NW 5mi, 8km
Updated: Tue, 24-Oct-2017 5:53am CDT
Light rain, Overcast
Light rain, Overcast
 Wind from WNW
Wind: WNW 15 mph , 24 km/h
Temperature: 46°F , 8°C
Wind Chill: 40°F , 4°C
Dew Point: 46°F , 8°C
Humidity: 100%
Barometer: 29.46 inHg , 997.6 hPa
Summary: Light rain
Clouds: Overcast
Visibility: 10 miles , 16 km
Cloud details: Partly cloudy 2900 ft
Mostly cloudy 3900 ft
Overcast 4800 ft
2017/10/24 10:53 KGRB 241053Z 30013KT 10SM -RA SCT029 BKN039 OVC048 08/08 A2946 RMK AO2 SLP978 P0001 T00830078
KATW - Appleton/Outagam, Wisconsin, USA
Distance from station: WSW 26mi, 42km
Updated: Tue, 24-Oct-2017 5:45am CDT
Rain, Overcast
Rain, Overcast
 Wind from NW
Wind: NW 14 mph , 22 km/h, Gust: 23 mph , 37 km/h
Temperature: 45°F , 7°C
Wind Chill: 39°F , 4°C
Dew Point: 45°F , 7°C
Humidity: 100%
Barometer: 29.47 inHg , 998 hPa
Summary: Rain
Clouds: Overcast
Visibility: 10 miles , 16 km
Cloud details: Overcast 900 ft
2017/10/24 10:45 KATW 241045Z 31012G20KT 10SM RA OVC009 07/07 A2947
 
KMTW - Manitowac Muni, Wisconsin, USA
Distance from station: SE 29mi, 47km
Updated: Tue, 24-Oct-2017 5:56am CDT
Light rain, Overcast
Light rain, Overcast
 Wind from W
Wind: W 10 mph , 17 km/h
Temperature: 48°F , 9°C
Wind Chill: 44°F , 7°C
Dew Point: 46°F , 8°C
Humidity: 94%
Barometer: 29.44 inHg , 997 hPa
Summary: Light rain
Clouds: Overcast
Visibility: 10 miles , 16 km
Cloud details: Partly cloudy 3500 ft
Mostly cloudy 5000 ft
Overcast 7500 ft
2017/10/24 10:56 KMTW 241056Z AUTO 28009KT 10SM -RA SCT035 BKN050 OVC075 09/08 A2944 RMK AO2 SLP994 P0000 T00890078
KOCQ - Oconto, Wisconsin, USA
Distance from station: NNE 30mi, 49km
Updated: Tue, 24-Oct-2017 5:55am CDT
Overcast
Overcast
 Wind from W
Wind: W 12 mph , 19 km/h, Gust: 17 mph , 28 km/h
Temperature: 48°F , 9°C
Wind Chill: 43°F , 6°C
Dew Point: 45°F , 7°C
Humidity: 87%
Barometer: 29.41 inHg , 995.9 hPa
Clouds: Overcast
Visibility: 10 miles , 16 km
Cloud details: Overcast 6000 ft
2017/10/24 10:55 KOCQ 241055Z AUTO 28010G15KT 10SM OVC060 09/07 A2941 RMK AO1 P0001 T00890068
 
KEZS - Shawano Muni, Wisconsin, USA
Distance from station: NW 35mi, 56km
Updated: Tue, 24-Oct-2017 5:55am CDT
Light drizzle, Overcast
Light drizzle, Overcast
 Wind from W
Wind: W 12 mph , 19 km/h, Gust: 16 mph , 26 km/h
Temperature: 48°F , 9°C
Wind Chill: 43°F , 6°C
Dew Point: 43°F , 6°C
Humidity: 82%
Barometer: 29.47 inHg , 998 hPa
Summary: Light Drizzle
Clouds: Overcast
Visibility: 10 miles , 16 km
Cloud details: Overcast 2000 ft
2017/10/24 10:55 KEZS 241055Z AUTO 28010G14KT 10SM -DZ OVC020 09/06 A2947 RMK AO2 T00870064
KCLI - Clintonville, Wisconsin, USA
Distance from station: WNW 36mi, 58km
Updated: Tue, 24-Oct-2017 6:00am CDT
Light drizzle, Overcast
Light drizzle, Overcast
 Wind from NW
Wind: NW 13 mph , 20 km/h, Gust: 21 mph , 33 km/h
Temperature: 46°F , 8°C
Wind Chill: 40°F , 4°C
Dew Point: 43°F , 6°C
Humidity: 87%
Barometer: 29.49 inHg , 998.6 hPa
Summary: Light Drizzle
Clouds: Overcast
Visibility: 10 miles , 16 km
Cloud details: Partly cloudy 1400 ft
Mostly cloudy 2100 ft
Overcast 3100 ft
2017/10/24 11:00 KCLI 241100Z AUTO 31011G18KT 10SM -DZ SCT014 BKN021 OVC031 08/06 A2949 RMK AO2
 
KOSH - Oshkosh, Wisconsin, USA
Distance from station: SW 41mi, 66km
Updated: Tue, 24-Oct-2017 6:00am CDT
Light rain, Overcast
Light rain, Overcast
 Wind from NW
Wind: NW 13 mph , 20 km/h, Gust: 24 mph , 39 km/h
Temperature: 46°F , 8°C
Wind Chill: 40°F , 4°C
Dew Point: 45°F , 7°C
Humidity: 93%
Barometer: 29.49 inHg , 998.6 hPa
Summary: Light rain
Clouds: Overcast
Visibility: 10 miles , 16 km
Cloud details: Mostly cloudy 1300 ft
Overcast 3900 ft
2017/10/24 11:00 KOSH 241100Z 31011G21KT 10SM -RA BKN013 OVC039 08/07 A2949 RMK AO2 P0001 T00780067
KSUE - Sturgeon Bay, Wisconsin, USA
Distance from station: NE 42mi, 68km
Updated: Tue, 24-Oct-2017 5:56am CDT
Light rain, Overcast
Light rain, Overcast
 Wind from WNW
Wind: WNW 15 mph , 24 km/h, Gust: 24 mph , 39 km/h
Temperature: 48°F , 9°C
Wind Chill: 42°F , 6°C
Dew Point: 46°F , 8°C
Humidity: 94%
Barometer: 29.38 inHg , 994.9 hPa
Summary: Light rain
Clouds: Overcast
Visibility: 10 miles , 16 km
Cloud details: Overcast 3600 ft
2017/10/24 10:56 KSUE 241056Z AUTO 29013G21KT 10SM -RA OVC036 09/08 A2938 RMK AO2 SLP974 P0003 T00940078
 
KSBM - Sheboygan, Wisconsin, USA
Distance from station: SSE 46mi, 75km
Updated: Tue, 24-Oct-2017 6:12am CDT
Light rain, Overcast
Light rain, Overcast
 Wind from NW
Wind: NW 12 mph , 19 km/h
Temperature: 48°F , 9°C
Wind Chill: 43°F , 6°C
Dew Point: 48°F , 9°C
Humidity: 100%
Barometer: 29.45 inHg , 997.3 hPa
Summary: Light rain
Clouds: Overcast
Visibility: 10 miles , 16 km
Cloud details: Mostly cloudy 1500 ft
Mostly cloudy 2500 ft
Overcast 4000 ft
2017/10/24 11:12 KSBM 241112Z AUTO 32010KT 10SM -RA BKN015 BKN025 OVC040 09/09 A2945 RMK AO2 P0001 T00940089 TSNO
KPCZ - Waupaca, Wisconsin, USA
Distance from station: W 48mi, 77km
Updated: Tue, 24-Oct-2017 5:55am CDT
Drizzle, Overcast
Drizzle, Overcast
 Wind from WNW
Wind: WNW 10 mph , 17 km/h, Gust: 17 mph , 28 km/h
Temperature: 46°F , 8°C
Wind Chill: 41°F , 5°C
Dew Point: 45°F , 7°C
Humidity: 93%
Barometer: 29.52 inHg , 999.7 hPa
Summary: Drizzle
Clouds: Overcast
Visibility: 7 miles , 11 km
Cloud details: Partly cloudy 1400 ft
Mostly cloudy 1900 ft
Overcast 4700 ft
2017/10/24 10:55 KPCZ 241055Z AUTO 30009G15KT 7SM DZ SCT014 BKN019 OVC047 08/07 A2952 RMK AO2 P0001 T00800068